Flight Track Log - Related Links

Times and Time Zones

All times are in EDT time to prevent confusion due to time zone crossing. See the SWA718 flight status page for this flight to view local times or setup timezone preferences in your user account.


Time Position Orientation Groundspeed Altitude Reporting Facility
EDT Latitude Longitude Course Direction KTS MPH feet Rate Location/Type
Mon 09:19:04 AM 37.7333 -122.2667 76° East 177 204 1,600  Level Northern Cal TRACON
Mon 09:20:04 AM 37.7500 -122.3500 284° West 230 265 3,600 1,850 Climbing Northern Cal TRACON
Mon 09:21:04 AM 37.8000 -122.3833 332° Northwest 272 313 5,300 2,474 Climbing Northern Cal TRACON
Mon 09:21:58 AM 37.8833 -122.3833 360° North 290 334 8,300 2,732 Climbing Northern Cal TRACON
Mon 09:23:07 AM 37.9456 -122.3300 34° Northeast 305 351 10,900 2,631 Climbing Oakland Center
Mon 09:24:00 AM 37.9709 -121.9454 76° East  Level FlightAware Approximate
Mon 09:24:08 AM 37.9578 -122.2125 82° East 338 389 14,000  Level Oakland Center
Mon 09:25:08 AM 37.9708 -122.0914 82° East 346 398 16,000 2,380 Climbing Oakland Center
Mon 09:26:09 AM 37.9819 -121.9686 83° East 350 403 18,800 2,508 Climbing Oakland Center
Mon 09:27:10 AM 37.9947 -121.8378 83° East 365 420 21,100 2,231 Climbing Oakland Center
Mon 09:28:10 AM 38.0089 -121.6997 83° East 386 444 23,300 2,132 Climbing Oakland Center
Mon 09:29:11 AM 38.0225 -121.5586 83° East 398 458 25,400 2,066 Climbing Oakland Center
Mon 09:30:12 AM 38.0356 -121.4156 83° East 408 470 27,500 2,132 Climbing Oakland Center
Mon 09:31:12 AM 38.0525 -121.2386 83° East 420 483 29,700 1,785 Climbing Oakland Center
Mon 09:32:13 AM 38.0669 -121.0864 83° East 434 499 31,100 1,525 Climbing Oakland Center
Mon 09:33:14 AM 38.0836 -120.9322 82° East 440 506 32,800 1,475 Climbing Oakland Center
Mon 09:34:15 AM 38.1053 -120.7769 80° East 447 514 34,100 1,190 Climbing Oakland Center
Mon 09:35:15 AM 38.1264 -120.6203 80° East 451 519 35,200 1,289 Climbing Oakland Center
Mon 09:36:16 AM 38.1469 -120.4617 81° East 455 524 36,700 885 Climbing Oakland Center
Mon 09:37:17 AM 38.1678 -120.3058 80° East 451 519 37,000 148 Climbing Oakland Center
Mon 09:38:18 AM 38.1883 -120.1497 80° East 449 517 37,000  Level Oakland Center
Mon 09:39:18 AM 38.2086 -119.9931 81° East 449 517 37,000  Level Oakland Center
Mon 09:40:19 AM 38.2275 -119.8381 81° East 445 512 37,000  Level Oakland Center
Mon 09:41:20 AM 38.2464 -119.6819 81° East 447 514 37,000  Level Oakland Center
Mon 09:42:21 AM 38.2661 -119.5256 81° East 448 516 37,000  Level Oakland Center
Mon 09:43:22 AM 38.2892 -119.3444 81° East 448 516 37,000  Level Oakland Center
Mon 09:44:23 AM 38.3075 -119.1872 81° East 450 518 37,000  Level Oakland Center
Mon 09:45:24 AM 38.3119 -119.0283 88° East 451 519 37,000  Level Oakland Center
Mon 09:46:24 AM 38.3128 -118.8683 90° East 454 522 37,000  Level Oakland Center
Mon 09:47:25 AM 38.3136 -118.7064 90° East 458 527 37,000  Level Oakland Center
Mon 09:48:26 AM 38.3136 -118.5453 90° East 457 526 37,000  Level Oakland Center
Mon 09:49:27 AM 38.3136 -118.3858 90° East 454 522 37,000  Level Oakland Center
Mon 09:50:28 AM 38.3142 -118.2253 90° East 455 524 37,000  Level Oakland Center
Mon 09:51:29 AM 38.3139 -118.0386 90° East 458 527 37,000  Level Oakland Center
Mon 09:52:30 AM 38.3139 -117.8778 90° East 456 525 37,000  Level Oakland Center
Mon 09:53:31 AM 38.3131 -117.7150 90° East 458 527 37,000  Level Oakland Center
Mon 09:54:32 AM 38.3119 -117.5522 90° East 458 527 37,000  Level Oakland Center
Mon 09:55:33 AM 38.3114 -117.3881 90° East 455 524 37,000  Level Oakland Center
Mon 09:56:33 AM 38.3100 -117.2267 91° East 456 525 37,000  Level Oakland Center
Mon 09:57:34 AM 38.3081 -117.0603 91° East 457 526 37,000  Level Oakland Center
Mon 09:58:35 AM 38.3061 -116.8964 91° East 458 527 37,000  Level Oakland Center
Mon 09:59:36 AM 38.3033 -116.7344 91° East 456 525 37,000  Level Oakland Center
Mon 10:00:37 AM 38.3006 -116.5722 91° East 456 525 37,000  Level Oakland Center
Mon 10:01:38 AM 38.2989 -116.4092 91° East 459 528 37,000  Level Oakland Center
Mon 10:02:39 AM 38.2947 -116.2464 92° East 459 528 37,000  Level Oakland Center
Mon 10:03:51 AM 38.2917 -116.0508 91° East 461 531 37,000  Level Salt Lake Center
Mon 10:04:52 AM 38.2886 -115.8864 91° East 464 534 37,000  Level Salt Lake Center
Mon 10:05:53 AM 38.2858 -115.7236 91° East 461 531 37,000  Level Salt Lake Center
Mon 10:06:55 AM 38.2603 -115.5608 101° East 467 537 37,000  Level Salt Lake Center
Mon 10:07:56 AM 38.2333 -115.4019 102° East 462 532 37,000  Level Salt Lake Center
Mon 10:08:57 AM 38.2081 -115.2478 102° East 464 534 37,000  Level Salt Lake Center
Mon 10:09:59 AM 38.1753 -115.0575 102° East 461 531 37,000  Level Salt Lake Center
Mon 10:11:00 AM 38.1481 -114.9011 102° East 455 524 37,000  Level Salt Lake Center
Mon 10:12:01 AM 38.1206 -114.7414 102° East 462 532 37,000  Level Salt Lake Center
Mon 10:13:03 AM 38.0936 -114.5842 102° East 458 527 37,000  Level Salt Lake Center
Mon 10:14:04 AM 38.0658 -114.4278 103° East 456 525 37,000  Level Salt Lake Center
Mon 10:15:06 AM 38.0375 -114.2719 103° East 455 524 37,000  Level Salt Lake Center
Mon 10:16:07 AM 38.0094 -114.1158 103° East 455 524 37,000  Level Salt Lake Center
Mon 10:16:32 AM 37.9992 -114.0533 102° East 455 524 37,000  Level Salt Lake Center
Mon 10:17:33 AM 37.9694 -113.8975 104° East 455 524 37,000  Level Salt Lake Center
Mon 10:18:34 AM 37.9408 -113.7425 103° East 454 522 37,000  Level Salt Lake Center
Mon 10:19:36 AM 37.9064 -113.5544 103° East 457 526 37,000  Level Salt Lake Center
Mon 10:20:37 AM 37.8775 -113.3997 103° East 453 521 37,000  Level Salt Lake Center
Mon 10:21:38 AM 37.8481 -113.2442 103° East 454 522 37,000  Level Salt Lake Center
Mon 10:22:40 AM 37.8189 -113.0872 103° East 455 524 37,000  Level Salt Lake Center
Mon 10:23:41 AM 37.7900 -112.9317 103° East 452 520 37,000  Level Salt Lake Center
Mon 10:24:43 AM 37.7597 -112.7731 104° East 453 521 37,000  Level Salt Lake Center
Mon 10:25:44 AM 37.7281 -112.6158 104° East 455 524 37,000  Level Salt Lake Center
Mon 10:26:46 AM 37.6964 -112.4600 104° East 455 524 37,000  Level Salt Lake Center
Mon 10:27:47 AM 37.6661 -112.3047 104° East 455 524 37,000  Level Salt Lake Center
Mon 10:28:48 AM 37.6356 -112.1486 104° East 457 526 37,000  Level Salt Lake Center
Mon 10:29:50 AM 37.6031 -111.9919 105° East 461 531 37,000  Level Salt Lake Center
Mon 10:30:51 AM 37.5719 -111.8367 104° East 459 528 37,000  Level Salt Lake Center
Mon 10:31:53 AM 37.5339 -111.6500 104° East 459 528 37,000  Level Salt Lake Center
Mon 10:32:43 AM 37.5100 -111.5281 104° East 452 520 37,000  Level Denver Center
Mon 10:33:45 AM 37.4769 -111.3736 105° East 456 525 37,000  Level Denver Center
Mon 10:34:47 AM 37.4458 -111.2208 104° East 452 520 37,000  Level Denver Center
Mon 10:35:49 AM 37.4139 -111.0647 104° East 460 529 37,000  Level Denver Center
Mon 10:36:51 AM 37.3797 -110.9094 105° East 462 532 37,000  Level Denver Center
Mon 10:37:53 AM 37.3400 -110.7200 105° East 466 536 37,000  Level Denver Center
Mon 10:38:55 AM 37.3056 -110.5603 105° East 473 544 37,000  Level Denver Center
Mon 10:39:57 AM 37.2717 -110.4019 105° East 473 544 37,000  Level Denver Center
Mon 10:40:59 AM 37.2375 -110.2431 105° East 473 544 37,000  Level Denver Center
Mon 10:42:01 AM 37.1989 -110.0703 106° East 475 547 37,000  Level Denver Center
Mon 10:43:03 AM 37.1544 -109.9247 111° Southeast 468 539 37,000  Level Denver Center
Mon 10:44:05 AM 37.1042 -109.7522 110° East 472 543 37,000  Level Denver Center
Mon 10:45:07 AM 37.0622 -109.6047 110° East 470 541 37,000  Level Denver Center
Mon 10:46:21 AM 37.0117 -109.4314 110° East 473 544 37,000  Level Denver Center
Mon 10:47:24 AM 36.9611 -109.2594 110° East 471 542 37,000  Level Denver Center
Mon 10:48:26 AM 36.9100 -109.0875 110° East 471 542 37,000  Level Denver Center
Mon 10:49:28 AM 36.8664 -108.9397 110° East 471 542 37,000  Level Denver Center
Mon 10:50:30 AM 36.8161 -108.7675 110° East 472 543 37,000  Level Denver Center
Mon 10:51:32 AM 36.7714 -108.6206 111° Southeast 471 542 37,000  Level Denver Center
Mon 10:52:34 AM 36.7194 -108.4469 110° East 474 545 37,000  Level Denver Center
Mon 10:53:36 AM 36.6747 -108.3003 111° Southeast 473 544 37,000  Level Denver Center
Mon 10:54:38 AM 36.6219 -108.1294 111° Southeast 472 543 37,000  Level Denver Center
Mon 10:55:40 AM 36.5772 -107.9831 111° Southeast 471 542 37,000  Level Denver Center
Mon 10:56:54 AM 36.5253 -107.8119 111° Southeast 473 544 37,000  Level Denver Center
Mon 10:57:57 AM 36.4719 -107.6431 111° Southeast 470 541 37,000  Level Denver Center
Mon 10:58:59 AM 36.4189 -107.4736 111° Southeast 471 542 37,000  Level Denver Center
Mon 11:00:01 AM 36.3742 -107.3286 111° Southeast 470 541 37,000  Level Denver Center
Mon 11:00:54 AM 36.3272 -107.1847 112° Southeast 472 543 37,000  Level Albuquerque Center
Mon 11:01:55 AM 36.2831 -107.0406 111° Southeast 470 541 37,000  Level Albuquerque Center
Mon 11:02:57 AM 36.2286 -106.8725 112° Southeast 471 542 37,000  Level Albuquerque Center
Mon 11:03:59 AM 36.1836 -106.7289 111° Southeast 469 540 37,000  Level Albuquerque Center
Mon 11:05:01 AM 36.1367 -106.5814 111° Southeast 469 540 37,000  Level Albuquerque Center
Mon 11:06:03 AM 36.0881 -106.4314 112° Southeast 469 540 37,000  Level Albuquerque Center
Mon 11:07:04 AM 36.0392 -106.2814 112° Southeast 469 540 37,000  Level Albuquerque Center
Mon 11:08:06 AM 35.9906 -106.1308 112° Southeast 471 542 37,000  Level Albuquerque Center
Mon 11:09:08 AM 35.9406 -105.9817 112° Southeast 469 540 37,000  Level Albuquerque Center
Mon 11:10:10 AM 35.8839 -105.8056 112° Southeast 463 533 37,000  Level Albuquerque Center
Mon 11:11:12 AM 35.8356 -105.6569 112° Southeast 464 534 37,000  Level Albuquerque Center
Mon 11:12:13 AM 35.7889 -105.5183 113° Southeast 465 535 37,000  Level Albuquerque Center
Mon 11:13:15 AM 35.7303 -105.3450 113° Southeast 466 536 37,000  Level Albuquerque Center
Mon 11:14:17 AM 35.6792 -105.1978 113° Southeast 466 536 37,000  Level Albuquerque Center
Mon 11:15:19 AM 35.6075 -105.0647 123° Southeast 463 533 37,000  Level Albuquerque Center
Mon 11:16:21 AM 35.5219 -104.9486 132° Southeast 457 526 37,000  Level Albuquerque Center
Mon 11:17:23 AM 35.4394 -104.8281 130° Southeast 458 527 37,000  Level Albuquerque Center
Mon 11:18:25 AM 35.3550 -104.7097 131° Southeast 459 528 37,000  Level Albuquerque Center
Mon 11:19:27 AM 35.2619 -104.5761 130° Southeast 457 526 37,000  Level Albuquerque Center
Mon 11:20:29 AM 35.1844 -104.4647 130° Southeast 455 524 37,000 339 Level Albuquerque Center
Mon 11:21:31 AM 35.0994 -104.3469 131° Southeast 460 529 37,700 829 Climbing Albuquerque Center
Mon 11:22:32 AM 35.0022 -104.2153 132° Southeast 478 550 38,700 634 Climbing Albuquerque Center
Mon 11:23:34 AM 34.9161 -104.0939 131° Southeast 477 549 39,000 145 Climbing Albuquerque Center
Mon 11:24:36 AM 34.8294 -103.9736 131° Southeast 473 544 39,000  Level Albuquerque Center
Mon 11:25:38 AM 34.7286 -103.8344 131° Southeast 468 539 39,000  Level Albuquerque Center
Mon 11:26:40 AM 34.6417 -103.7142 131° Southeast 469 540 39,000  Level Albuquerque Center
Mon 11:27:41 AM 34.5542 -103.5947 132° Southeast 470 541 39,000  Level Albuquerque Center
Mon 11:28:43 AM 34.4664 -103.4747 132° Southeast 472 543 39,000  Level Albuquerque Center
Mon 11:29:45 AM 34.3794 -103.3547 131° Southeast 470 541 39,000  Level Albuquerque Center
Mon 11:30:47 AM 34.2919 -103.2378 132° Southeast 467 537 39,000  Level Albuquerque Center
Mon 11:31:49 AM 34.1964 -103.1078 132° Southeast 470 541 39,000  Level Albuquerque Center
Mon 11:32:50 AM 34.1092 -102.9911 132° Southeast 469 540 39,000  Level Albuquerque Center
Mon 11:33:52 AM 34.0219 -102.8731 132° Southeast 470 541 39,000  Level Albuquerque Center
Mon 11:34:54 AM 33.9333 -102.7553 132° Southeast 472 543 39,000  Level Albuquerque Center
Mon 11:35:56 AM 33.8456 -102.6372 132° Southeast 475 547 39,000  Level Albuquerque Center
Mon 11:36:58 AM 33.7569 -102.5183 132° Southeast 475 547 39,000  Level Albuquerque Center
Mon 11:37:59 AM 33.6678 -102.4011 132° Southeast 474 545 39,000  Level Albuquerque Center
Mon 11:38:52 AM 33.5717 -102.2797 134° Southeast 473 544 39,000  Level Fort Worth Center
Mon 11:39:53 AM 33.4881 -102.1728 133° Southeast 479 551 39,000  Level Fort Worth Center
Mon 11:40:52 AM 33.3928 -102.0433 131° Southeast 479 551 39,000  Level Fort Worth Center
Mon 11:41:53 AM 33.3131 -101.9372 132° Southeast 479 551 39,000  Level Fort Worth Center
Mon 11:42:53 AM 33.2133 -101.8106 133° Southeast 474 545 39,000  Level Fort Worth Center
Mon 11:43:53 AM 33.1375 -101.7075 131° Southeast 463 533 39,000  Level Fort Worth Center
Mon 11:44:53 AM 33.0397 -101.5789 132° Southeast 463 533 39,000  Level Fort Worth Center
Mon 11:45:53 AM 32.9533 -101.4708 134° Southeast 458 527 39,000  Level Fort Worth Center
Mon 11:46:53 AM 32.8672 -101.3558 132° Southeast 458 527 39,000  Level Fort Worth Center
Mon 11:47:53 AM 32.7769 -101.2456 134° Southeast 463 533 39,000  Level Fort Worth Center
Mon 11:48:52 AM 32.6844 -101.1281 133° Southeast 463 533 39,000  Level Fort Worth Center
Mon 11:49:52 AM 32.5981 -101.0136 132° Southeast 463 533 39,000  Level Fort Worth Center
Mon 11:50:52 AM 32.5053 -100.8989 134° Southeast 463 533 39,000  Level Fort Worth Center
Mon 11:51:53 AM 32.4144 -100.7847 133° Southeast 468 539 39,000  Level Fort Worth Center
Mon 11:52:53 AM 32.3214 -100.6658 133° Southeast 475 547 39,000  Level Fort Worth Center
Mon 11:53:53 AM 32.2283 -100.5494 133° Southeast 481 554 39,000  Level Fort Worth Center
Mon 11:54:53 AM 32.1353 -100.4308 133° Southeast 481 554 39,000  Level Fort Worth Center
Mon 11:55:53 AM 32.0419 -100.3175 134° Southeast 486 559 39,000  Level Fort Worth Center
Mon 11:56:53 AM 31.9506 -100.2019 133° Southeast 486 559 39,000  Level Fort Worth Center
Mon 11:57:53 AM 31.8592 -100.0892 134° Southeast 486 559 39,000  Level Fort Worth Center
Mon 12:00:23 PM 31.6461 -99.8208 133° Southeast 474 545 39,000  Level Houston Center
Mon 12:01:25 PM 31.5553 -99.7089 134° Southeast 474 545 39,000  Level Houston Center
Mon 12:02:27 PM 31.4478 -99.5758 133° Southeast 469 540 39,000  Level Houston Center
Mon 12:03:29 PM 31.3572 -99.4661 134° Southeast 471 542 39,000  Level Houston Center
Mon 12:04:31 PM 31.2733 -99.3458 129° Southeast 478 550 39,000  Level Houston Center
Mon 12:05:34 PM 31.2339 -99.1986 107° East 477 549 39,000  Level Houston Center
Mon 12:06:36 PM 31.1981 -99.0472 105° East 477 549 39,000  Level Houston Center
Mon 12:07:38 PM 31.1603 -98.8975 106° East 477 549 39,000  Level Houston Center
Mon 12:08:40 PM 31.1172 -98.7225 106° East 477 549 39,000  Level Houston Center
Mon 12:09:42 PM 31.0808 -98.5733 106° East 474 545 39,000  Level Houston Center
Mon 12:10:44 PM 31.0433 -98.4250 106° East 474 545 39,000  Level Houston Center
Mon 12:11:46 PM 31.0056 -98.2764 106° East 474 545 39,000  Level Houston Center
Mon 12:12:48 PM 30.9656 -98.1278 107° East 475 547 39,000  Level Houston Center
Mon 12:13:51 PM 30.9292 -97.9789 106° East 476 548 39,000  Level Houston Center
Mon 12:14:53 PM 30.8900 -97.8306 107° East 476 548 39,000  Level Houston Center
Mon 12:15:55 PM 30.8453 -97.6581 107° East 475 547 39,000 -1,065 Level Houston Center
Mon 12:16:57 PM 30.8061 -97.5083 107° East 482 555 36,800 -2,081 Descending Houston Center
Mon 12:17:59 PM 30.7653 -97.3597 108° East 485 558 34,700 -2,274 Descending Houston Center
Mon 12:19:01 PM 30.7289 -97.2131 106° East 476 548 32,100 -2,855 Descending Houston Center
Mon 12:20:03 PM 30.6575 -97.0561 118° Southeast 471 542 28,800 -2,758 Descending Houston Center
Mon 12:21:05 PM 30.5906 -96.9300 122° Southeast 459 528 26,400 -2,304 Descending Houston Center
Mon 12:22:08 PM 30.5256 -96.8058 121° Southeast 450 518 24,000 -2,352 Descending Houston Center
Mon 12:23:10 PM 30.4619 -96.6858 122° Southeast 436 502 21,500 -2,371 Descending Houston Center
Mon 12:24:12 PM 30.4003 -96.5700 122° Southeast 420 483 19,100 -2,500 Descending Houston Center
Mon 12:24:58 PM 30.3475 -96.4728 122° Southeast 408 470 17,000 -2,419 Descending Houston Center
Mon 12:25:14 PM 30.3403 -96.4569 118° Southeast 411 473 16,600 -2,459 Descending Houston Center
Mon 12:25:59 PM 30.2903 -96.3631 122° Southeast 393 452 14,500 -2,419 Descending Houston Center
Mon 12:26:16 PM 30.2831 -96.3486 120° Southeast 395 455 14,100 -2,516 Descending Houston Center
Mon 12:27:01 PM 30.2331 -96.2558 122° Southeast 380 437 11,900 -2,710 Descending Houston Center
Mon 12:27:18 PM 30.2178 -96.2272 122° Southeast 378 435 11,300 -984 Descending Houston Center
Mon 12:28:02 PM 30.1575 -96.1822 147° Southeast 367 422 10,900 -290 Descending Houston Center
Mon 12:28:20 PM 30.1292 -96.1664 154° Southeast 370 426 11,000 107 Climbing Houston Center
Mon 12:28:58 PM 30.0694 -96.1342 155° Southeast 368 423 11,000 -97 Level Houston Center
Mon 12:29:22 PM 30.0447 -96.1197 153° Southeast 366 421 10,900  Descending Houston Center
Mon 12:30:04 PM 29.9661 -96.0783 155° Southeast 367 422 11,000  Climbing Houston Center
Mon 12:30:24 PM 29.9511 -96.0706 156° South 368 423 10,900 -387 Descending Houston Center
Mon 12:31:06 PM 29.8736 -96.0286 155° Southeast 366 421 10,600 -571 Descending Houston Center
Mon 12:31:27 PM 29.8406 -96.0128 157° South 362 417 10,300 -689 Descending Houston Center
Mon 12:32:07 PM 29.7825 -95.9933 164° South 308 354 9,900 -581 Descending Houston Center
Mon 12:32:29 PM 29.7636 -95.9867 163° South 321 369 9,700 -1,279 Descending Houston Center
Mon 12:33:08 PM 29.7006 -95.9689 166° South 300 345 8,600 -1,452 Descending Houston Center
Mon 12:33:31 PM 29.6828 -95.9647 168° South 302 348 8,200 -857 Descending Houston Center
Mon 12:34:04 PM 29.6275 -95.9486 166° South 295 339 7,800 -581 Descending Houston Center
Mon 12:34:33 PM 29.6044 -95.9414 165° South 294 338 7,600 -689 Descending Houston Center
Mon 12:35:05 PM 29.5600 -95.9203 158° South 246 283 7,100 -581 Descending Houston Center
Mon 12:35:35 PM 29.5308 -95.8994 148° Southeast 255 293 7,000 -295 Descending Houston Center
Mon 12:36:06 PM 29.5014 -95.8764 146° Southeast 244 281 6,800 -677 Descending Houston Center
Mon 12:36:37 PM 29.4719 -95.8572 150° Southeast 250 288 6,300 -787 Descending Houston Center
Mon 12:37:07 PM 29.4386 -95.8308 145° Southeast 250 288 6,000 -196 Descending Houston Center
Mon 12:38:09 PM 29.4181 -95.7639 109° East 228 262 6,000  Level Houston Center
Mon 12:38:41 PM 29.4200 -95.7342 86° East 229 264 6,000 -818 Level Houston Center
Mon 12:39:15 PM 29.4300 -95.6856 77° East 232 267 5,100 -968 Descending Houston Center
Mon 12:39:43 PM 29.4339 -95.6608 80° East 234 269 5,000 -484 Descending Houston Center
Mon 12:40:17 PM 29.4436 -95.6050 79° East 236 272 4,600 -774 Descending Houston Center
Mon 12:40:45 PM 29.4500 -95.5719 77° East 238 274 4,200 -885 Descending Houston Center
Mon 12:41:18 PM 29.4561 -95.5314 80° East 235 270 3,700 -766 Descending Houston Center
Mon 12:42:19 PM 29.4928 -95.4744 53° Northeast 226 260 3,000 -462 Descending Houston Center
Mon 12:42:49 PM 29.5075 -95.4497 56° Northeast 223 257 3,000  Level Houston Center
Mon 12:43:20 PM 29.5294 -95.4147 54° Northeast 218 251 3,000 -484 Level Houston Center
Mon 12:43:51 PM 29.5422 -95.3953 53° Northeast 217 250 2,500 -968 Descending Houston Center
Mon 12:44:22 PM 29.5650 -95.3672 47° Northeast 188 216 2,000 -774 Descending Houston Center
Mon 12:44:53 PM 29.5794 -95.3506 45° Northeast 204 235 1,700 -885 Descending Houston Center
Mon 12:45:23 PM 29.5992 -95.3294 43° Northeast 156 180 1,100 -871 Descending Houston Center
Mon 12:45:55 PM 29.6103 -95.3178 42° Northeast 175 201 800 -689 Descending Houston Center
Mon 12:46:24 PM 29.6278 -95.2972 46° Northeast 139 160 400 -677 Descending Houston Center
Mon 12:46:57 PM 29.6383 -95.2867 41° Northeast 152 175 100 -545 Descending Houston Center
Mon 12:48:00 PM 29.6454 -95.2789 59° Northeast  Level Estimated

Login

Don't have an account? Register now (free) for customized features, flight alerts, and more!